Time;durP1;ratioP1;P1;durP2;ratioP2;P2;SDS_P1;SDS_P2;PMS_P1;PMS_P2;Temp;Humidity;BMP_temperature;BMP_pressure;BME280_temperature;BME280_humidity;BME280_pressure;Samples;Min_cycle;Max_cycle;Signal;HPM_P1;HPM_P2
2022/03/17 00:01:29;;;;;;;29.55;13.73;;;;;;;;;;5034833;28;20083;-77
2022/03/17 00:03:56;;;;;;;28.98;13.73;;;;;;;;;;5034900;28;20462;-75
2022/03/17 00:06:22;;;;;;;25.85;13.15;;;;;;;;;;5034768;28;20041;-78
2022/03/17 00:08:48;;;;;;;25.30;12.82;;;;;;;;;;5051407;28;20039;-77
2022/03/17 00:11:14;;;;;;;27.83;12.70;;;;;;;;;;5034486;28;20124;-78
2022/03/17 00:13:41;;;;;;;31.77;13.90;;;;;;;;;;5051352;28;20037;-75
2022/03/17 00:16:09;;;;;;;32.65;13.50;;;;;;;;;;5034382;28;20048;-76
2022/03/17 00:18:35;;;;;;;30.25;12.82;;;;;;;;;;5050786;28;20417;-77
2022/03/17 00:21:01;;;;;;;27.80;13.80;;;;;;;;;;5034392;28;20084;-77
2022/03/17 00:23:27;;;;;;;27.77;13.63;;;;;;;;;;5034692;28;20526;-77
2022/03/17 00:25:53;;;;;;;27.35;13.35;;;;;;;;;;5034436;28;20168;-75
2022/03/17 00:28:19;;;;;;;27.48;12.82;;;;;;;;;;5051021;28;20119;-78
2022/03/17 00:30:45;;;;;;;28.50;12.75;;;;;;;;;;5034028;28;20497;-77
2022/03/17 00:33:11;;;;;;;30.25;13.50;;;;;;;;;;5034486;28;20037;-76
2022/03/17 00:35:42;;;;;;;29.85;12.50;;;;;;;;;;5034241;28;20045;-77
2022/03/17 00:38:17;;;;;;;30.13;12.70;;;;;;;;;;5034884;28;20040;-78
2022/03/17 00:40:44;;;;;;;28.70;13.60;;;;;;;;;;5051396;28;20052;-77
2022/03/17 00:43:12;;;;;;;26.52;12.60;;;;;;;;;;5052006;28;20062;-77
2022/03/17 00:45:38;;;;;;;28.20;13.35;;;;;;;;;;5051261;28;20052;-79
2022/03/17 00:48:05;;;;;;;28.25;13.10;;;;;;;;;;5050484;28;20045;-77
2022/03/17 00:50:31;;;;;;;31.35;14.43;;;;;;;;;;5034450;28;20040;-75
2022/03/17 00:52:57;;;;;;;28.08;13.38;;;;;;;;;;5050810;28;20553;-77
2022/03/17 00:55:23;;;;;;;28.23;14.30;;;;;;;;;;5034724;28;20048;-75
2022/03/17 00:57:49;;;;;;;26.77;11.90;;;;;;;;;;5034759;28;20037;-78
2022/03/17 01:00:16;;;;;;;27.50;13.90;;;;;;;;;;5034485;28;20049;-78
2022/03/17 01:02:46;;;;;;;26.15;11.88;;;;;;;;;;5051242;28;20076;-76
2022/03/17 01:05:13;;;;;;;28.23;13.50;;;;;;;;;;5051273;28;20095;-77
2022/03/17 01:07:39;;;;;;;28.23;13.15;;;;;;;;;;5034204;28;20040;-77
2022/03/17 01:10:05;;;;;;;30.88;13.70;;;;;;;;;;5050815;28;20128;-78
2022/03/17 01:12:32;;;;;;;28.52;13.45;;;;;;;;;;5035315;28;20128;-76
2022/03/17 01:14:59;;;;;;;28.25;13.30;;;;;;;;;;5051000;28;20067;-78
2022/03/17 01:17:25;;;;;;;28.38;12.73;;;;;;;;;;5051136;28;20136;-76
2022/03/17 01:19:51;;;;;;;29.38;13.10;;;;;;;;;;5033770;28;20521;-76
2022/03/17 01:22:17;;;;;;;29.92;14.10;;;;;;;;;;5050412;28;20095;-75
2022/03/17 01:24:43;;;;;;;33.85;13.63;;;;;;;;;;5033758;28;20044;-76
2022/03/17 01:27:09;;;;;;;34.22;14.30;;;;;;;;;;5033702;28;20041;-77
2022/03/17 01:29:38;;;;;;;33.65;13.18;;;;;;;;;;5033839;28;20504;-75
2022/03/17 01:32:05;;;;;;;34.20;14.00;;;;;;;;;;5033633;28;20511;-78
2022/03/17 01:34:31;;;;;;;33.65;14.27;;;;;;;;;;5033798;28;20094;-76
2022/03/17 01:36:57;;;;;;;25.95;12.80;;;;;;;;;;5033811;28;20419;-76
2022/03/17 01:39:23;;;;;;;28.90;13.75;;;;;;;;;;5034297;28;20072;-77
2022/03/17 01:41:49;;;;;;;24.65;12.65;;;;;;;;;;5034001;28;20471;-75
2022/03/17 01:44:15;;;;;;;29.02;14.18;;;;;;;;;;5036569;28;20098;-76
2022/03/17 01:49:25;;;;;;;25.42;11.85;;;;;;;;;;5054132;28;20440;-75
2022/03/17 01:51:51;;;;;;;32.60;13.75;;;;;;;;;;5054089;28;20049;-76
2022/03/17 01:54:19;;;;;;;28.27;12.82;;;;;;;;;;5055071;28;20461;-76
2022/03/17 01:56:45;;;;;;;30.77;13.98;;;;;;;;;;5053792;28;20060;-77
2022/03/17 01:59:11;;;;;;;22.95;12.10;;;;;;;;;;5037456;28;20047;-77
2022/03/17 02:01:38;;;;;;;29.17;13.52;;;;;;;;;;5037663;28;20075;-74
2022/03/17 02:04:04;;;;;;;36.38;14.23;;;;;;;;;;5037323;28;20140;-76
2022/03/17 02:06:31;;;;;;;28.55;12.85;;;;;;;;;;5054003;28;20070;-77
2022/03/17 02:08:57;;;;;;;30.55;13.45;;;;;;;;;;5053523;28;20047;-75
2022/03/17 02:14:08;;;;;;;28.10;12.70;;;;;;;;;;5053645;28;20036;-78
2022/03/17 02:16:34;;;;;;;28.92;13.68;;;;;;;;;;5053719;28;20064;-74
2022/03/17 02:19:00;;;;;;;24.48;11.23;;;;;;;;;;5037244;28;20045;-76
2022/03/17 02:21:26;;;;;;;29.42;13.68;;;;;;;;;;5037148;28;20037;-76
2022/03/17 02:26:38;;;;;;;25.23;12.13;;;;;;;;;;5053252;28;20103;-75
2022/03/17 02:29:04;;;;;;;28.55;14.07;;;;;;;;;;5053314;28;20095;-74
2022/03/17 02:31:31;;;;;;;28.48;13.35;;;;;;;;;;5036976;28;20041;-75
2022/03/17 02:33:57;;;;;;;25.30;12.25;;;;;;;;;;5036684;28;20042;-76
2022/03/17 02:36:24;;;;;;;28.20;14.27;;;;;;;;;;5037040;28;20049;-76
2022/03/17 02:38:50;;;;;;;29.40;14.20;;;;;;;;;;5036747;28;20041;-75
2022/03/17 02:41:23;;;;;;;28.75;13.68;;;;;;;;;;5054197;28;20056;-75
2022/03/17 02:43:52;;;;;;;30.38;14.52;;;;;;;;;;5036342;28;20179;-75
2022/03/17 02:46:19;;;;;;;24.65;11.32;;;;;;;;;;5037407;28;20097;-76
2022/03/17 02:48:45;;;;;;;32.03;15.52;;;;;;;;;;5053354;28;20045;-74
2022/03/17 02:51:12;;;;;;;26.90;12.93;;;;;;;;;;5053106;28;20401;-76
2022/03/17 02:53:38;;;;;;;27.65;12.40;;;;;;;;;;5052701;28;20045;-76
2022/03/17 02:56:04;;;;;;;30.55;13.57;;;;;;;;;;5036607;28;20036;-74
2022/03/17 02:58:33;;;;;;;29.50;13.70;;;;;;;;;;5036836;28;20090;-75
2022/03/17 03:00:59;;;;;;;23.55;11.48;;;;;;;;;;5053298;28;20481;-77
2022/03/17 03:03:25;;;;;;;32.90;14.25;;;;;;;;;;5036326;28;20055;-75
2022/03/17 03:05:51;;;;;;;35.20;13.40;;;;;;;;;;5052809;28;20132;-76
2022/03/17 03:08:17;;;;;;;32.28;13.98;;;;;;;;;;5036443;28;20036;-78
2022/03/17 03:10:44;;;;;;;25.27;12.73;;;;;;;;;;5053845;28;20114;-76
2022/03/17 03:13:10;;;;;;;28.85;12.00;;;;;;;;;;5019848;28;20033;-76
2022/03/17 03:15:36;;;;;;;26.35;12.73;;;;;;;;;;5036711;28;20164;-74
2022/03/17 03:18:02;;;;;;;30.80;13.70;;;;;;;;;;5035819;28;20057;-76
2022/03/17 03:20:28;;;;;;;31.38;13.50;;;;;;;;;;5052770;28;20045;-76
2022/03/17 03:22:54;;;;;;;27.08;13.02;;;;;;;;;;5038035;28;20086;-80
2022/03/17 03:25:20;;;;;;;30.33;14.68;;;;;;;;;;5051786;28;20040;-76
2022/03/17 03:27:46;;;;;;;32.67;13.70;;;;;;;;;;5049019;28;20401;-75
2022/03/17 03:30:13;;;;;;;34.72;13.35;;;;;;;;;;5032752;28;20041;-76
2022/03/17 03:32:45;;;;;;;29.13;12.48;;;;;;;;;;5049131;28;20048;-75
2022/03/17 03:37:56;;;;;;;26.50;13.30;;;;;;;;;;5049691;28;20048;-77
2022/03/17 03:40:23;;;;;;;27.08;13.27;;;;;;;;;;5032343;28;20095;-76
2022/03/17 03:42:49;;;;;;;31.08;13.27;;;;;;;;;;5032007;28;20049;-76
2022/03/17 03:45:15;;;;;;;25.48;13.15;;;;;;;;;;5048560;28;20496;-75
2022/03/17 03:47:41;;;;;;;30.75;13.57;;;;;;;;;;5049102;28;20033;-74
2022/03/17 03:50:07;;;;;;;27.55;12.43;;;;;;;;;;5033050;28;20048;-78
2022/03/17 03:52:33;;;;;;;29.00;13.35;;;;;;;;;;5032215;28;20131;-77
2022/03/17 03:54:59;;;;;;;28.45;12.95;;;;;;;;;;5032660;28;20041;-74
2022/03/17 03:57:25;;;;;;;27.23;13.43;;;;;;;;;;5032291;28;20044;-76
2022/03/17 03:59:51;;;;;;;25.98;12.02;;;;;;;;;;5050307;28;20041;-77
2022/03/17 04:02:17;;;;;;;26.35;13.77;;;;;;;;;;5035826;28;20051;-76
2022/03/17 04:04:43;;;;;;;31.73;13.18;;;;;;;;;;5041831;28;20516;-75
2022/03/17 04:07:10;;;;;;;27.55;12.70;;;;;;;;;;5053952;28;20036;-77
2022/03/17 04:09:39;;;;;;;29.98;14.30;;;;;;;;;;5071804;28;20477;-75
2022/03/17 04:12:06;;;;;;;29.33;13.15;;;;;;;;;;5071974;28;20051;-77
2022/03/17 04:14:32;;;;;;;33.47;14.68;;;;;;;;;;5055242;28;20585;-76
2022/03/17 04:16:58;;;;;;;33.03;14.82;;;;;;;;;;5071813;28;20103;-76
2022/03/17 04:19:24;;;;;;;26.67;14.68;;;;;;;;;;5071103;28;20443;-75
2022/03/17 04:21:50;;;;;;;32.67;14.43;;;;;;;;;;5071297;28;20112;-76
2022/03/17 04:24:17;;;;;;;31.40;14.00;;;;;;;;;;5071846;28;20078;-77
2022/03/17 04:26:44;;;;;;;32.65;14.02;;;;;;;;;;5054712;28;20049;-75
2022/03/17 04:29:10;;;;;;;26.73;13.00;;;;;;;;;;5071047;28;20122;-76
2022/03/17 04:31:37;;;;;;;37.38;14.82;;;;;;;;;;5053975;28;20041;-78
2022/03/17 04:34:03;;;;;;;33.33;15.43;;;;;;;;;;5053986;28;20067;-77
2022/03/17 04:36:31;;;;;;;27.02;12.93;;;;;;;;;;5070926;28;20048;-77
2022/03/17 04:38:57;;;;;;;28.30;15.05;;;;;;;;;;5054051;28;20456;-76
2022/03/17 04:41:23;;;;;;;32.65;15.68;;;;;;;;;;5070457;28;20044;-78
2022/03/17 04:43:49;;;;;;;30.42;14.68;;;;;;;;;;5053999;28;20396;-73
2022/03/17 04:46:16;;;;;;;34.38;16.33;;;;;;;;;;5070659;28;20489;-76
2022/03/17 04:48:42;;;;;;;34.38;16.00;;;;;;;;;;5070627;28;20040;-77
2022/03/17 04:51:08;;;;;;;36.35;15.55;;;;;;;;;;5070230;28;20036;-78
2022/03/17 04:53:34;;;;;;;32.80;16.15;;;;;;;;;;5054093;28;20039;-77
2022/03/17 04:56:03;;;;;;;38.08;17.55;;;;;;;;;;5053602;28;20098;-75
2022/03/17 04:58:33;;;;;;;38.67;18.02;;;;;;;;;;5070516;28;20075;-77
2022/03/17 05:00:59;;;;;;;42.83;21.55;;;;;;;;;;5053837;28;20037;-77
2022/03/17 05:03:26;;;;;;;42.90;20.00;;;;;;;;;;5053802;28;20497;-75
2022/03/17 05:05:52;;;;;;;39.08;17.92;;;;;;;;;;5053422;28;20048;-76
2022/03/17 05:08:18;;;;;;;41.40;19.17;;;;;;;;;;5070279;28;20047;-77
2022/03/17 05:10:45;;;;;;;44.60;20.00;;;;;;;;;;5070509;28;20489;-75
2022/03/17 05:13:12;;;;;;;46.25;19.90;;;;;;;;;;5070422;28;20048;-74
2022/03/17 05:15:39;;;;;;;32.50;15.90;;;;;;;;;;5053566;28;20489;-76
2022/03/17 05:18:06;;;;;;;42.20;17.75;;;;;;;;;;5072869;28;20045;-75
2022/03/17 05:20:32;;;;;;;43.28;19.48;;;;;;;;;;5057534;28;20506;-74
2022/03/17 05:22:58;;;;;;;38.33;17.05;;;;;;;;;;5074508;28;20493;-72
2022/03/17 05:25:24;;;;;;;54.15;22.10;;;;;;;;;;5057445;28;20036;-74
2022/03/17 05:27:50;;;;;;;49.80;21.23;;;;;;;;;;5074475;28;20094;-72
2022/03/17 05:30:17;;;;;;;57.35;24.77;;;;;;;;;;5074170;28;20076;-72
2022/03/17 05:32:44;;;;;;;52.08;22.73;;;;;;;;;;5074447;28;20037;-72
2022/03/17 05:35:10;;;;;;;48.45;20.33;;;;;;;;;;5057383;28;20041;-71
2022/03/17 05:37:37;;;;;;;55.28;22.23;;;;;;;;;;5073959;28;20047;-72
2022/03/17 05:40:04;;;;;;;47.10;21.83;;;;;;;;;;5073668;28;20071;-72
2022/03/17 05:42:31;;;;;;;43.00;17.75;;;;;;;;;;5057122;28;20044;-70
2022/03/17 05:44:57;;;;;;;24.70;10.35;;;;;;;;;;5057423;28;20040;-72
2022/03/17 05:47:23;;;;;;;13.70;6.72;;;;;;;;;;5073719;28;20044;-72
2022/03/17 05:49:49;;;;;;;10.07;5.65;;;;;;;;;;5073888;28;20044;-73
2022/03/17 05:52:15;;;;;;;11.82;6.05;;;;;;;;;;5073876;28;20032;-71
2022/03/17 05:54:41;;;;;;;11.90;6.20;;;;;;;;;;5056978;28;20051;-69
2022/03/17 05:57:09;;;;;;;14.00;6.90;;;;;;;;;;5074046;28;20487;-71
2022/03/17 05:59:39;;;;;;;10.25;5.95;;;;;;;;;;5056796;28;20098;-71
2022/03/17 06:02:05;;;;;;;12.18;6.15;;;;;;;;;;5056728;28;20519;-73
2022/03/17 06:04:31;;;;;;;11.10;5.35;;;;;;;;;;5056932;28;20044;-74
2022/03/17 06:06:57;;;;;;;9.40;5.82;;;;;;;;;;5073357;28;20072;-71
2022/03/17 06:09:23;;;;;;;9.50;5.28;;;;;;;;;;5056473;28;20094;-74
2022/03/17 06:11:49;;;;;;;9.30;5.03;;;;;;;;;;5056608;28;20150;-74
2022/03/17 06:14:15;;;;;;;9.63;6.05;;;;;;;;;;5073316;28;20043;-73
2022/03/17 06:16:41;;;;;;;9.75;5.72;;;;;;;;;;5072748;28;20413;-76
2022/03/17 06:19:07;;;;;;;11.98;5.90;;;;;;;;;;5056151;28;20052;-76
2022/03/17 06:21:33;;;;;;;13.80;6.88;;;;;;;;;;5072684;28;20412;-74
2022/03/17 06:23:59;;;;;;;12.10;6.75;;;;;;;;;;5072754;28;20055;-75
2022/03/17 06:26:25;;;;;;;13.98;6.50;;;;;;;;;;5072768;28;20181;-76
2022/03/17 06:28:51;;;;;;;13.80;6.85;;;;;;;;;;5055598;28;20396;-77
2022/03/17 06:31:17;;;;;;;15.57;7.60;;;;;;;;;;5057022;28;20404;-76
2022/03/17 06:33:45;;;;;;;14.07;7.40;;;;;;;;;;5056668;28;20413;-75
2022/03/17 06:36:13;;;;;;;12.65;6.65;;;;;;;;;;5073468;28;20419;-73
2022/03/17 06:38:39;;;;;;;20.45;10.00;;;;;;;;;;5056250;28;20480;-74
2022/03/17 06:41:05;;;;;;;15.40;7.60;;;;;;;;;;5073015;28;20448;-74
2022/03/17 06:43:31;;;;;;;15.27;7.28;;;;;;;;;;5073235;28;20099;-72
2022/03/17 06:45:57;;;;;;;15.63;6.75;;;;;;;;;;5072552;28;20091;-74
2022/03/17 06:48:23;;;;;;;14.80;5.75;;;;;;;;;;5055941;28;20099;-73
2022/03/17 06:50:49;;;;;;;14.27;5.28;;;;;;;;;;5055812;28;20480;-74
2022/03/17 06:53:15;;;;;;;10.30;5.78;;;;;;;;;;5056112;28;20500;-74
2022/03/17 06:55:41;;;;;;;12.95;5.70;;;;;;;;;;5056067;28;20076;-73
2022/03/17 06:58:07;;;;;;;10.02;5.85;;;;;;;;;;5055577;28;20103;-74
2022/03/17 07:00:33;;;;;;;10.57;5.57;;;;;;;;;;5055463;28;20048;-75
2022/03/17 07:02:59;;;;;;;10.68;5.10;;;;;;;;;;5071651;28;20125;-74
2022/03/17 07:05:25;;;;;;;17.08;6.22;;;;;;;;;;5055680;28;20048;-75
2022/03/17 07:07:51;;;;;;;10.65;5.35;;;;;;;;;;5071945;28;20040;-73
2022/03/17 07:10:17;;;;;;;10.70;4.93;;;;;;;;;;5072550;28;20037;-73
2022/03/17 07:12:44;;;;;;;11.98;4.95;;;;;;;;;;5056131;28;20071;-74
2022/03/17 07:15:10;;;;;;;11.60;4.90;;;;;;;;;;5053517;28;20121;-74
2022/03/17 07:17:39;;;;;;;10.38;4.88;;;;;;;;;;5068675;28;20079;-78
2022/03/17 07:20:09;;;;;;;13.32;5.10;;;;;;;;;;5068530;28;20076;-75
2022/03/17 07:22:35;;;;;;;7.10;4.03;;;;;;;;;;5068817;28;20113;-76
2022/03/17 07:25:02;;;;;;;7.53;3.80;;;;;;;;;;5068212;28;20098;-75
2022/03/17 07:27:30;;;;;;;7.82;3.53;;;;;;;;;;5052114;28;20059;-76
2022/03/17 07:29:56;;;;;;;7.93;3.50;;;;;;;;;;5052472;28;20170;-72
2022/03/17 07:32:25;;;;;;;6.60;2.75;;;;;;;;;;5068514;28;20040;-74
2022/03/17 07:34:51;;;;;;;9.43;2.85;;;;;;;;;;5068080;28;20036;-71
2022/03/17 07:37:17;;;;;;;7.30;2.83;;;;;;;;;;5051581;28;20047;-75
2022/03/17 07:39:44;;;;;;;7.90;2.83;;;;;;;;;;5068446;28;20048;-73
2022/03/17 07:42:10;;;;;;;5.95;2.55;;;;;;;;;;5067514;28;20044;-73
2022/03/17 07:44:37;;;;;;;4.90;2.13;;;;;;;;;;5067630;28;20501;-74
2022/03/17 07:47:03;;;;;;;4.40;2.00;;;;;;;;;;5051238;28;20091;-71
2022/03/17 07:49:29;;;;;;;6.53;2.17;;;;;;;;;;5067961;28;20374;-74
2022/03/17 07:51:55;;;;;;;8.55;1.73;;;;;;;;;;5068149;28;20032;-75
2022/03/17 07:54:21;;;;;;;7.70;2.08;;;;;;;;;;5068232;28;20059;-73
2022/03/17 07:56:47;;;;;;;6.10;1.73;;;;;;;;;;5051388;28;20040;-73
2022/03/17 07:59:14;;;;;;;4.80;1.52;;;;;;;;;;5051216;28;20040;-74
2022/03/17 08:01:40;;;;;;;6.50;2.10;;;;;;;;;;5068050;28;20048;-74
2022/03/17 08:04:06;;;;;;;7.60;1.95;;;;;;;;;;5050943;28;20036;-75
2022/03/17 08:06:33;;;;;;;2.88;1.25;;;;;;;;;;5067789;28;20445;-70
2022/03/17 08:08:59;;;;;;;9.73;1.60;;;;;;;;;;5068384;28;20037;-73
2022/03/17 08:11:25;;;;;;;5.75;1.73;;;;;;;;;;5068047;28;20048;-74
2022/03/17 08:13:57;;;;;;;7.60;1.73;;;;;;;;;;5086331;27;20397;-73
2022/03/17 08:16:23;;;;;;;5.50;1.50;;;;;;;;;;5085385;28;20036;-75
2022/03/17 08:18:50;;;;;;;6.57;1.48;;;;;;;;;;5068366;28;20545;-72
2022/03/17 08:21:17;;;;;;;11.55;1.58;;;;;;;;;;5070963;28;20036;-73
2022/03/17 08:23:43;;;;;;;6.60;1.88;;;;;;;;;;5087609;28;20038;-71
2022/03/17 08:26:09;;;;;;;2.53;0.98;;;;;;;;;;5071320;28;20037;-73
2022/03/17 08:28:35;;;;;;;15.73;2.60;;;;;;;;;;5088110;28;20047;-72
2022/03/17 08:31:01;;;;;;;3.22;1.33;;;;;;;;;;5071443;28;20408;-73
2022/03/17 08:33:27;;;;;;;2.67;0.90;;;;;;;;;;5071458;28;20123;-70
2022/03/17 08:35:53;;;;;;;5.30;1.17;;;;;;;;;;5088343;28;20101;-70
2022/03/17 08:38:20;;;;;;;4.15;1.10;;;;;;;;;;5088036;28;20036;-72
2022/03/17 08:40:46;;;;;;;9.95;1.45;;;;;;;;;;5071141;28;20036;-75
2022/03/17 08:43:12;;;;;;;8.25;1.20;;;;;;;;;;5087825;28;20052;-76
2022/03/17 08:51:10;;;;;;;5.65;1.17;;;;;;;;;;5087182;28;20143;-75
2022/03/17 08:53:36;;;;;;;2.42;0.98;;;;;;;;;;5070058;28;20093;-75
2022/03/17 08:56:03;;;;;;;3.10;1.20;;;;;;;;;;5087142;28;20080;-76
2022/03/17 08:58:29;;;;;;;5.20;0.93;;;;;;;;;;5070058;28;20040;-75
2022/03/17 09:00:55;;;;;;;6.80;1.08;;;;;;;;;;5086922;28;20047;-73
2022/03/17 09:03:22;;;;;;;10.25;1.55;;;;;;;;;;5086809;28;20048;-73
2022/03/17 09:05:48;;;;;;;10.27;1.00;;;;;;;;;;5070005;28;20040;-76
2022/03/17 09:08:14;;;;;;;5.75;1.35;;;;;;;;;;5087131;28;20480;-74
2022/03/17 09:10:40;;;;;;;4.00;1.05;;;;;;;;;;5086836;28;20047;-74
2022/03/17 09:13:10;;;;;;;4.97;0.68;;;;;;;;;;5086432;28;20074;-72
2022/03/17 09:15:37;;;;;;;6.57;1.10;;;;;;;;;;5086197;28;20515;-75
2022/03/17 09:18:03;;;;;;;8.48;1.30;;;;;;;;;;5085651;28;20036;-75
2022/03/17 09:20:29;;;;;;;7.78;1.08;;;;;;;;;;5086824;28;20097;-76
2022/03/17 09:22:56;;;;;;;2.63;0.55;;;;;;;;;;5086630;28;20040;-73
2022/03/17 09:25:24;;;;;;;7.85;1.13;;;;;;;;;;5056098;28;20052;-74
2022/03/17 09:27:51;;;;;;;6.07;1.30;;;;;;;;;;5072987;28;20385;-71
2022/03/17 09:30:17;;;;;;;9.10;1.92;;;;;;;;;;5073041;28;20080;-75
2022/03/17 09:32:45;;;;;;;9.55;1.52;;;;;;;;;;5056102;28;20127;-77
2022/03/17 09:35:11;;;;;;;6.85;1.17;;;;;;;;;;5072848;28;20044;-74
2022/03/17 09:37:37;;;;;;;5.63;1.45;;;;;;;;;;5072879;28;20083;-72
2022/03/17 09:40:04;;;;;;;3.65;0.70;;;;;;;;;;5073064;28;20041;-73
2022/03/17 09:42:30;;;;;;;12.27;1.73;;;;;;;;;;5056003;28;20447;-74
2022/03/17 09:44:56;;;;;;;4.38;1.05;;;;;;;;;;5054831;28;20101;-73
2022/03/17 09:47:26;;;;;;;6.70;1.77;;;;;;;;;;5072008;28;20043;-73
2022/03/17 09:49:53;;;;;;;9.13;1.70;;;;;;;;;;5056132;28;20055;-74
2022/03/17 09:52:20;;;;;;;7.68;1.48;;;;;;;;;;5072725;28;20040;-75
2022/03/17 09:54:46;;;;;;;6.03;1.15;;;;;;;;;;5072478;28;20542;-75
2022/03/17 09:57:16;;;;;;;3.00;1.05;;;;;;;;;;5072394;28;20400;-76
2022/03/17 09:59:42;;;;;;;4.60;0.77;;;;;;;;;;5055860;28;20036;-75
2022/03/17 10:02:08;;;;;;;5.97;1.17;;;;;;;;;;5072863;28;20037;-74
2022/03/17 10:04:35;;;;;;;6.63;1.30;;;;;;;;;;5072330;28;20539;-76
2022/03/17 10:07:01;;;;;;;7.43;1.45;;;;;;;;;;5072654;28;20042;-77
2022/03/17 10:09:31;;;;;;;9.82;1.58;;;;;;;;;;5072327;28;20049;-77
2022/03/17 10:12:01;;;;;;;4.55;1.08;;;;;;;;;;5055043;28;20463;-76
2022/03/17 10:14:47;;;;;;;5.10;1.08;;;;;;;;;;5055324;28;20041;-76
2022/03/17 10:17:32;;;;;;;8.13;1.60;;;;;;;;;;5072032;28;20040;-76
2022/03/17 10:20:17;;;;;;;8.90;1.30;;;;;;;;;;5072252;28;20040;-77
2022/03/17 10:22:44;;;;;;;7.72;2.08;;;;;;;;;;5072368;28;20051;-75
2022/03/17 10:25:12;;;;;;;13.02;1.63;;;;;;;;;;5056285;28;20045;-76
2022/03/17 10:27:45;;;;;;;8.10;1.30;;;;;;;;;;5055537;28;20051;-77
2022/03/17 10:30:11;;;;;;;9.48;1.77;;;;;;;;;;5055412;28;20041;-76
2022/03/17 10:32:37;;;;;;;5.13;0.93;;;;;;;;;;5055061;28;20036;-75
2022/03/17 10:35:03;;;;;;;10.35;3.58;;;;;;;;;;5054754;28;20400;-80
2022/03/17 10:37:32;;;;;;;7.25;1.33;;;;;;;;;;5071502;28;20040;-74
2022/03/17 10:39:59;;;;;;;3.97;1.20;;;;;;;;;;5071894;28;20388;-72
2022/03/17 10:42:29;;;;;;;4.90;0.93;;;;;;;;;;5055083;28;20491;-77
2022/03/17 10:44:55;;;;;;;4.72;1.00;;;;;;;;;;5054937;28;20083;-74
2022/03/17 10:47:30;;;;;;;8.07;1.30;;;;;;;;;;5071700;28;20048;-74
2022/03/17 10:50:04;;;;;;;7.72;1.10;;;;;;;;;;5054928;28;20488;-74
2022/03/17 10:52:49;;;;;;;6.20;0.63;;;;;;;;;;5054627;28;20127;-76
2022/03/17 10:55:18;;;;;;;6.75;1.38;;;;;;;;;;5071526;28;20047;-75
2022/03/17 10:57:44;;;;;;;9.68;1.33;;;;;;;;;;5071087;28;20052;-74
2022/03/17 11:00:25;;;;;;;6.93;1.00;;;;;;;;;;5071135;28;20504;-74
2022/03/17 11:02:53;;;;;;;4.28;0.95;;;;;;;;;;5054802;28;20043;-72
2022/03/17 11:05:19;;;;;;;3.30;0.82;;;;;;;;;;5054834;28;20113;-72
2022/03/17 11:07:46;;;;;;;6.38;1.25;;;;;;;;;;5054950;28;20098;-74
2022/03/17 11:10:15;;;;;;;4.50;0.80;;;;;;;;;;5054908;28;20526;-72
2022/03/17 11:12:42;;;;;;;6.55;1.58;;;;;;;;;;5054972;28;20048;-74
2022/03/17 11:15:08;;;;;;;4.75;1.08;;;;;;;;;;5054745;28;20473;-73
2022/03/17 11:17:46;;;;;;;2.67;1.00;;;;;;;;;;5071882;28;20047;-76
2022/03/17 11:20:17;;;;;;;5.30;1.20;;;;;;;;;;5071575;28;20047;-74
2022/03/17 11:22:50;;;;;;;2.88;1.17;;;;;;;;;;5054866;28;20045;-73
2022/03/17 11:25:26;;;;;;;6.65;1.13;;;;;;;;;;5054907;28;20045;-73
2022/03/17 11:27:59;;;;;;;6.32;1.10;;;;;;;;;;5070943;28;20131;-73
2022/03/17 11:30:30;;;;;;;4.07;1.02;;;;;;;;;;5070886;28;20040;-75
2022/03/17 11:32:58;;;;;;;;;;;;;;;;;;5069982;28;20438;-75
2022/03/17 11:35:29;;;;;;;6.82;1.80;;;;;;;;;;5067011;28;19923;-75
2022/03/17 11:38:26;;;;;;;4.18;1.20;;;;;;;;;;5050206;28;20040;-72
2022/03/17 11:41:09;;;;;;;8.40;2.13;;;;;;;;;;5059529;28;20661;-77
2022/03/17 11:43:39;;;;;;;6.53;0.98;;;;;;;;;;5050720;28;20755;-75
2022/03/17 11:46:15;;;;;;;5.72;1.13;;;;;;;;;;5067070;28;20519;-72
2022/03/17 11:48:42;;;;;;;5.60;1.48;;;;;;;;;;5050726;28;20087;-76
2022/03/17 11:51:09;;;;;;;2.58;0.88;;;;;;;;;;5066600;28;20076;-76
2022/03/17 11:53:39;;;;;;;7.57;1.10;;;;;;;;;;5066723;28;20044;-75
2022/03/17 11:56:05;;;;;;;5.47;1.37;;;;;;;;;;5066444;28;20404;-77
2022/03/17 11:58:39;;;;;;;7.30;1.20;;;;;;;;;;5067059;28;20090;-75
2022/03/17 12:01:11;;;;;;;10.30;1.92;;;;;;;;;;5049895;28;20488;-73
2022/03/17 12:03:37;;;;;;;7.57;1.70;;;;;;;;;;5066942;28;20048;-75
2022/03/17 12:06:14;;;;;;;8.48;1.85;;;;;;;;;;5063049;28;20063;-77
2022/03/17 12:08:49;;;;;;;5.15;1.15;;;;;;;;;;5049860;28;20049;-74
2022/03/17 12:11:16;;;;;;;4.70;1.08;;;;;;;;;;5050309;28;20817;-76
2022/03/17 12:13:42;;;;;;;7.57;1.17;;;;;;;;;;5066781;28;20055;-75
2022/03/17 12:16:12;;;;;;;4.50;1.30;;;;;;;;;;5066410;28;20037;-76
2022/03/17 12:18:56;;;;;;;4.90;1.20;;;;;;;;;;5066601;28;20125;-74
2022/03/17 12:21:42;;;;;;;5.63;1.75;;;;;;;;;;5050664;28;20480;-73
2022/03/17 12:24:08;;;;;;;3.53;1.08;;;;;;;;;;5067091;28;20476;-77
2022/03/17 12:26:34;;;;;;;6.45;2.22;;;;;;;;;;5049701;28;20051;-75
2022/03/17 12:29:00;;;;;;;7.45;2.20;;;;;;;;;;5050129;28;20071;-72
2022/03/17 12:31:26;;;;;;;8.82;1.25;;;;;;;;;;5067153;28;20056;-72
2022/03/17 12:33:52;;;;;;;3.92;1.40;;;;;;;;;;5066875;28;20045;-72
2022/03/17 12:36:23;;;;;;;5.35;1.67;;;;;;;;;;5050485;28;20041;-72
2022/03/17 12:38:49;;;;;;;3.55;1.38;;;;;;;;;;5050187;28;20516;-76
2022/03/17 12:41:15;;;;;;;7.03;2.95;;;;;;;;;;5049773;28;20055;-73
2022/03/17 12:43:41;;;;;;;5.00;1.58;;;;;;;;;;5067384;28;20124;-74
2022/03/17 12:46:07;;;;;;;6.45;1.48;;;;;;;;;;5067390;28;20052;-72
2022/03/17 12:48:34;;;;;;;2.30;1.15;;;;;;;;;;5066792;28;20396;-72
2022/03/17 12:51:11;;;;;;;7.57;1.20;;;;;;;;;;5049497;28;20044;-74
2022/03/17 12:53:39;;;;;;;4.93;1.33;;;;;;;;;;5066928;28;20045;-72
2022/03/17 12:56:05;;;;;;;7.47;1.55;;;;;;;;;;5069633;28;20118;-72
2022/03/17 12:58:39;;;;;;;5.75;2.08;;;;;;;;;;5053409;28;20043;-74
2022/03/17 13:01:05;;;;;;;5.22;2.25;;;;;;;;;;5073846;28;20044;-73
2022/03/17 13:03:31;;;;;;;3.97;1.13;;;;;;;;;;5056981;28;20515;-74
2022/03/17 13:08:45;;;;;;;3.70;1.27;;;;;;;;;;5073575;28;20494;-72
2022/03/17 13:16:44;;;;;;;4.50;1.10;;;;;;;;;;5073193;28;20412;-74
2022/03/17 13:19:10;;;;;;;5.47;1.20;;;;;;;;;;5056446;28;20123;-76
2022/03/17 13:21:37;;;;;;;5.57;1.00;;;;;;;;;;5073490;28;20513;-75
2022/03/17 13:24:15;;;;;;;10.63;1.30;;;;;;;;;;5073079;28;20085;-78
2022/03/17 13:26:41;;;;;;;4.22;1.00;;;;;;;;;;5056855;28;20051;-76
2022/03/17 13:29:07;;;;;;;5.55;1.23;;;;;;;;;;5074775;28;20044;-78
2022/03/17 13:31:37;;;;;;;4.53;1.25;;;;;;;;;;5073382;28;20048;-74
2022/03/17 13:34:03;;;;;;;6.97;1.48;;;;;;;;;;5073527;28;20040;-72
2022/03/17 13:36:48;;;;;;;6.78;1.00;;;;;;;;;;5056294;28;20119;-79
2022/03/17 13:39:14;;;;;;;5.75;1.30;;;;;;;;;;5058217;28;20044;-79
2022/03/17 13:41:40;;;;;;;5.85;1.42;;;;;;;;;;5073124;28;20040;-74
2022/03/17 13:44:08;;;;;;;2.28;1.30;;;;;;;;;;5074223;28;20127;-77
2022/03/17 13:46:39;;;;;;;7.60;1.10;;;;;;;;;;5057063;28;20037;-74
2022/03/17 13:49:05;;;;;;;;;;;;;;;;;;5056447;28;20049;-76
2022/03/17 13:51:31;;;;;;;8.18;1.30;;;;;;;;;;5056069;28;19974;-79
2022/03/17 13:54:04;;;;;;;8.00;1.75;;;;;;;;;;5072564;28;20048;-78
2022/03/17 13:56:29;;;;;;;6.40;1.45;;;;;;;;;;5056781;28;20451;-76
2022/03/17 13:58:59;;;;;;;12.38;1.23;;;;;;;;;;5072637;28;20090;-78
2022/03/17 14:01:25;;;;;;;9.90;1.23;;;;;;;;;;5074933;28;20132;-72
2022/03/17 14:04:03;;;;;;;3.53;0.90;;;;;;;;;;5056408;28;20503;-80
2022/03/17 14:06:33;;;;;;;4.65;0.95;;;;;;;;;;5055927;28;20055;-75
2022/03/17 14:09:02;;;;;;;3.95;0.70;;;;;;;;;;5055860;28;20051;-77
2022/03/17 14:11:29;;;;;;;6.28;1.17;;;;;;;;;;5072436;28;20055;-75
2022/03/17 14:14:02;;;;;;;7.30;1.42;;;;;;;;;;5071942;28;20493;-75
2022/03/17 14:16:29;;;;;;;3.33;0.95;;;;;;;;;;5056050;28;20041;-74
2022/03/17 14:18:56;;;;;;;4.78;1.02;;;;;;;;;;5055734;28;20081;-77
2022/03/17 14:21:23;;;;;;;3.67;1.13;;;;;;;;;;5073463;28;20123;-78
2022/03/17 14:26:35;;;;;;;4.68;0.90;;;;;;;;;;5072091;28;20463;-77
2022/03/17 14:29:02;;;;;;;7.22;0.90;;;;;;;;;;5055141;28;20098;-76
2022/03/17 14:31:30;;;;;;;6.40;1.13;;;;;;;;;;5055049;28;20091;-74
2022/03/17 14:33:56;;;;;;;11.63;1.30;;;;;;;;;;5054988;28;20041;-77
2022/03/17 14:36:24;;;;;;;4.68;1.40;;;;;;;;;;5072163;28;20043;-77
2022/03/17 14:38:52;;;;;;;5.07;0.95;;;;;;;;;;5071766;28;20047;-78
2022/03/17 14:41:19;;;;;;;2.53;0.90;;;;;;;;;;5054824;28;20079;-75
2022/03/17 14:43:46;;;;;;;6.25;1.10;;;;;;;;;;5054855;28;20040;-77
2022/03/17 14:46:13;;;;;;;3.80;1.45;;;;;;;;;;5071791;28;20492;-78
2022/03/17 14:48:39;;;;;;;9.60;1.35;;;;;;;;;;5072266;28;20051;-77
2022/03/17 14:51:05;;;;;;;6.32;0.90;;;;;;;;;;5071750;28;20090;-76
2022/03/17 14:53:32;;;;;;;4.07;1.15;;;;;;;;;;5055348;28;20105;-77
2022/03/17 14:55:58;;;;;;;5.75;0.93;;;;;;;;;;5071433;28;20040;-78
2022/03/17 14:58:25;;;;;;;10.65;1.38;;;;;;;;;;5071817;28;20043;-78
2022/03/17 15:00:51;;;;;;;6.25;1.30;;;;;;;;;;5055466;28;20647;-74